AirNav   Air Wisconsin Up To $57,000 Bonus
 
 1140 users online  

78IS Red Bud Regional Hospital Heliport
Red Bud, Illinois, USA

GOING TO RED BUD?


FAA INFORMATION EFFECTIVE 19 MAY 2022

Location

FAA Identifier: 78IS
Lat/Long: 38-12-34.7700N 089-59-48.7000W
38-12.579500N 089-59.811667W
38.2096583,-89.9968611
(estimated)
Elevation: 483 ft. / 147 m (estimated)
Variation: 00E (2000)
Time zone: UTC -5 (UTC -6 during Standard Time)
Zip code: 62278

Heliport Operations

Heliport use: Private use. Permission required prior to landing
Activation date: 02/2001
Control tower: no
ARTCC: KANSAS CITY CENTER
FSS: COLUMBIA FLIGHT SERVICE STATION
Attendance: CONTINUOUS
Segmented circle: no
Lights: FOR PERIMETER & FLOOD LGTS CALL 618-282-3831.

Heliport Communications

WX AWOS-3 at SAR (15 nm E): 118.375 (618-443-3296)

Nearby radio navigation aids

VOR radial/distance  VOR name  Freq  Var
TOYr183/32.0TROY VORTAC116.0004E
FAMr018/34.1FARMINGTON VORTAC115.7001E

Heliport Services

Runway Information

Helipad H1

Dimensions: 40 x 40 ft. / 12 x 12 m
Surface: concrete
Runway edge lights: PERI
Latitude: 38-12.579500N
Longitude: 089-59.811667W
Elevation: 483.0 ft.
Traffic pattern: leftleft

Heliport Ownership and Management from official FAA records

Ownership: Privately-owned
Owner: RED BUD REGIONAL HOSPITAL
325 SPRING STREET
RED BUD, IL 62278
Phone 618-282-3831
Manager: SHANE WATSON, CEO
325 SPRING STREET
RED BUD, IL 62278
Phone 618-282-3831
THOMAS KONRADT 618-282-5155 THOMAS_KONRADT@QUORUMHEALTH.COM

Additional Remarks

FOR CD CTC ST LOUIS APCH AT 314-890-1018.

Instrument Procedures

There are no published instrument procedures at 78IS.

Some nearby airports with instrument procedures:

KSAR - Sparta Community Airport-Hunter Field (15 nm E)
KFES - Festus Memorial Airport (18 nm W)
KPCD - Perryville Regional Airport (21 nm S)
KBLV - Scott Air Force Base/MidAmerica Airport (22 nm N)
KCPS - St Louis Downtown Airport (23 nm N)
 
Loc | Ops | Rwys | IFR | FBO | Links
Com | Nav | Svcs | Stats | Notes
Area around 78IS (Red Bud Regional Hospital Heliport)
 
Road maps at: MapQuest Bing Google
 
Aerial photo
No photo
 
Sectional chart

 
Airport distance calculator
Flying to Red Bud Regional Hospital Heliport? Find the distance to fly.

From to 78IS

Sunrise and sunset
Times for 27-May-2022
 Local
(UTC-5)
 Zulu
(UTC)
Morning civil twilight05:1110:11
Sunrise05:4210:42
Sunset20:1301:13
Evening civil twilight20:4301:43

Current date and time
Zulu (UTC)  27-May-2022 23:35:33
Local (UTC-5)  27-May-2022 18:35:33
 
METAR
KSAR 
14nm E 
272315Z AUTO 26006KT 10SM SCT020 SCT027 OVC032 17/14 A2995 RMK AO2 T01650139
KBLV 
21nm N 
272256Z AUTO 29008KT 10SM SCT024 OVC033 18/14 A2991 RMK AO2 SLP130 T01840137 VISNO RWY14R CHINO RWY14R $
KPCD 
21nm S 
272315Z AUTO 30008KT 250V330 10SM OVC024 17/14 A2994 RMK AO2 T01690140
KCPS 
23nm N 
272312Z 28009KT 10SM SCT027 OVC032 17/13 A2993 RMK AO2 T01720133
TAF
KBLV 
21nm N 
272027Z 2720/2822 28010G15KT 9999 OVC015 QNH2985INS BECMG 2721/2722 29010G15KT 9999 BKN020 OVC030 QNH2982INS BECMG 2800/2801 31006KT 9999 BKN030 OVC040 QNH2988INS BECMG 2811/2812 VRB06KT 9999 SCT050 SCT100 QNH2983INS TX20/2720Z TN14/2810Z
KCPS 
23nm N 
272050Z 2721/2818 32009KT P6SM BKN025 FM280000 32008KT P6SM SCT035 FM280300 VRB03KT P6SM FEW250
NOTAMs
Click for the latest NOTAMs
NOTAMs are issued by the DoD/FAA and will open in a separate window not controlled by AirNav.

 

 
 

Would you like to see your business listed on this page?

 If your business provides an interesting product or service to pilots, flight crews, aircraft, or users of the Red Bud Regional Hospital Heliport, you should consider listing it here.  To start the listing process, click on the button below
 
Add a business
 

Other Pages about Red Bud Regional Hospital Heliport

Update a link
 
Copyright © AirNav, LLC. All rights reserved. Privacy Policy  Contact